Time;durP1;ratioP1;P1;durP2;ratioP2;P2;SDS_P1;SDS_P2;PMS_P1;PMS_P2;Temp;Humidity;BMP_temperature;BMP_pressure;BME280_temperature;BME280_humidity;BME280_pressure;Samples;Min_cycle;Max_cycle;Signal;HPM_P1;HPM_P2
2021/06/19 00:01:13;;;;;;;;;6.00;6.00;;;;;24.61;58.74;98553.53;4987555;27;102725;-79
2021/06/19 00:03:41;;;;;;;;;6.33;5.00;;;;;24.59;58.59;98550.22;4954160;27;104035;-80
2021/06/19 00:06:08;;;;;;;;;7.00;6.00;;;;;24.63;58.48;98556.78;4996356;27;103044;-78
2021/06/19 00:08:35;;;;;;;;;7.00;7.00;;;;;24.63;58.63;98550.47;4957159;28;102413;-78
2021/06/19 00:11:03;;;;;;;;;6.00;6.00;;;;;24.50;58.58;98540.06;4962239;27;102367;-78
2021/06/19 00:13:30;;;;;;;;;9.00;8.00;;;;;24.54;58.82;98538.41;4967133;28;111047;-79
2021/06/19 00:15:57;;;;;;;;;7.33;6.33;;;;;24.63;58.65;98572.59;4983717;27;102214;-79
2021/06/19 00:18:25;;;;;;;;;9.00;6.67;;;;;24.59;58.98;98563.22;4993134;27;102439;-79
2021/06/19 00:20:59;;;;;;;;;8.00;7.00;;;;;24.55;58.88;98551.91;4950139;28;102651;-79
2021/06/19 00:23:33;;;;;;;;;7.00;7.00;;;;;24.52;59.04;98548.91;4994748;28;107969;-79
2021/06/19 00:26:07;;;;;;;;;6.67;6.00;;;;;24.55;58.73;98554.69;4982096;27;102271;-78
2021/06/19 00:28:41;;;;;;;;;7.33;7.00;;;;;24.54;58.77;98553.03;4990339;28;101937;-78
2021/06/19 00:31:17;;;;;;;;;7.00;7.00;;;;;24.50;59.06;98551.97;4996734;27;102168;-78
2021/06/19 00:33:53;;;;;;;;;8.00;7.00;;;;;24.55;58.76;98551.91;4982144;28;102311;-79
2021/06/19 00:36:27;;;;;;;;;6.33;6.00;;;;;24.50;58.65;98543.66;4978339;27;103784;-79
2021/06/19 00:38:59;;;;;;;;;7.00;5.33;;;;;24.51;59.03;98541.72;4982820;27;102287;-79
2021/06/19 00:41:34;;;;;;;;;6.33;6.33;;;;;24.49;58.94;98541.22;4989915;27;102195;-79
2021/06/19 00:44:20;;;;;;;;;6.33;5.67;;;;;24.55;58.82;98549.16;4977240;27;103261;-80
2021/06/19 00:46:57;;;;;;;;;8.33;7.00;;;;;24.57;59.01;98555.22;4997059;27;102387;-79
2021/06/19 00:49:29;;;;;;;;;7.67;7.67;;;;;24.48;58.84;98543.16;4980153;28;101943;-81
2021/06/19 00:52:03;;;;;;;;;7.67;7.67;;;;;24.48;58.41;98543.16;4992251;27;102720;-79
2021/06/19 00:54:38;;;;;;;;;7.00;6.33;;;;;24.52;58.76;98546.97;4962509;27;103124;-79
2021/06/19 00:57:12;;;;;;;;;9.33;7.33;;;;;24.48;58.61;98537.63;4975373;27;102237;-80
2021/06/19 00:59:48;;;;;;;;;8.33;7.33;;;;;24.51;58.41;98542.56;4972991;28;104091;-79
2021/06/19 01:02:21;;;;;;;;;7.33;7.00;;;;;24.54;58.73;98547.50;4943705;28;108563;-79
2021/06/19 01:04:57;;;;;;;;;4.33;4.33;;;;;24.46;57.89;98534.31;4951555;28;105639;-80
2021/06/19 01:07:28;;;;;;;;;8.00;7.67;;;;;24.45;58.22;98530.72;4962142;27;102493;-79
2021/06/19 01:10:01;;;;;;;;;6.67;6.67;;;;;24.51;58.49;98539.78;4935868;28;103229;-79
2021/06/19 01:12:35;;;;;;;;;8.00;7.33;;;;;24.50;58.20;98540.06;4933732;28;102376;-80
2021/06/19 01:15:09;;;;;;;;;5.33;5.33;;;;;24.48;58.37;98542.34;4897637;27;103488;-79
2021/06/19 01:17:43;;;;;;;;;7.33;7.00;;;;;24.51;57.87;98550.84;4918359;28;102564;-79
2021/06/19 01:20:22;;;;;;;;;6.67;6.67;;;;;24.45;58.03;98543.75;4920693;28;103633;-79
2021/06/19 01:22:56;;;;;;;;;7.33;7.00;;;;;24.48;58.33;98551.44;4953767;28;104744;-80
2021/06/19 01:25:38;;;;;;;;;6.67;6.33;;;;;24.47;57.96;98544.25;4939192;28;106732;-79
2021/06/19 01:28:13;;;;;;;;;7.67;7.33;;;;;24.48;57.75;98545.91;4901094;28;104962;-79
2021/06/19 01:30:48;;;;;;;;;7.67;6.00;;;;;24.41;57.96;98537.13;4972933;28;101956;-79
2021/06/19 01:33:24;;;;;;;;;6.33;6.33;;;;;24.45;58.11;98543.75;4980783;28;102578;-79
2021/06/19 01:35:58;;;;;;;;;6.67;6.67;;;;;24.44;57.73;98542.09;4949884;28;104151;-79
2021/06/19 01:38:46;;;;;;;;;6.67;6.67;;;;;24.44;58.00;98547.63;4931711;28;102255;-79
2021/06/19 01:41:29;;;;;;;;;5.33;5.00;;;;;24.37;57.66;98534.13;4963495;28;102416;-80
2021/06/19 01:44:10;;;;;;;;;8.00;8.00;;;;;24.42;57.78;98547.91;4942398;28;102609;-79
2021/06/19 01:46:45;;;;;;;;;8.00;7.67;;;;;24.42;57.63;98539.63;4869952;28;108216;-79
2021/06/19 01:49:19;;;;;;;;;7.00;7.00;;;;;24.39;57.70;98534.69;4959335;28;102604;-79
2021/06/19 01:51:56;;;;;;;;;6.33;6.00;;;;;24.37;57.19;98533.31;4958963;28;102779;-79
2021/06/19 01:54:38;;;;;;;;;7.67;7.67;;;;;24.42;57.66;98536.03;4970807;28;102338;-79
2021/06/19 01:57:11;;;;;;;;;6.67;6.00;;;;;24.33;57.61;98522.03;4907868;28;106568;-79
2021/06/19 01:59:46;;;;;;;;;8.33;8.33;;;;;24.34;57.21;98531.97;4947251;28;104817;-79
2021/06/19 02:02:22;;;;;;;;;7.67;7.00;;;;;24.32;57.66;98519.53;4940521;28;108671;-80
2021/06/19 02:04:57;;;;;;;;;7.67;7.67;;;;;24.39;57.36;98540.22;4964477;28;102250;-79
2021/06/19 02:07:36;;;;;;;;;6.00;6.00;;;;;24.38;57.08;98537.72;4962613;28;108105;-79
2021/06/19 02:10:12;;;;;;;;;6.67;6.67;;;;;24.34;57.08;98536.66;4904419;28;103126;-79
2021/06/19 02:12:49;;;;;;;;;7.67;6.00;;;;;24.37;57.08;98533.31;4959501;28;102162;-79
2021/06/19 02:15:23;;;;;;;;;8.00;7.67;;;;;24.37;56.82;98536.91;4953272;28;102313;-79
2021/06/19 02:18:01;;;;;;;;;6.33;5.33;;;;;24.34;57.17;98526.44;4954075;28;105603;-79
2021/06/19 02:20:38;;;;;;;;;6.33;6.33;;;;;24.34;56.54;98533.91;4948697;28;104243;-79
2021/06/19 02:23:15;;;;;;;;;7.67;7.00;;;;;24.28;56.54;98527.59;4982987;28;102790;-80
2021/06/19 02:25:54;;;;;;;;;8.00;7.33;;;;;24.33;56.73;98535.84;4983148;28;102216;-79
2021/06/19 02:28:28;;;;;;;;;6.33;6.00;;;;;24.32;56.66;98533.34;4969711;28;103038;-79
2021/06/19 02:31:01;;;;;;;;;7.67;7.67;;;;;24.33;56.54;98535.00;4979270;28;102064;-79
2021/06/19 02:33:37;;;;;;;;;7.00;7.00;;;;;24.33;56.77;98546.06;4961987;28;102860;-78
2021/06/19 02:36:14;;;;;;;;;8.33;8.33;;;;;24.30;56.88;98532.84;4985878;28;102536;-79
2021/06/19 02:38:49;;;;;;;;;8.67;8.00;;;;;24.31;56.21;98545.56;4983560;27;102986;-79
2021/06/19 02:41:24;;;;;;;;;8.33;8.00;;;;;24.26;56.28;98540.06;4970681;28;101947;-79
2021/06/19 02:43:56;;;;;;;;;8.00;8.00;;;;;24.19;56.34;98523.00;4966443;27;102633;-79
2021/06/19 02:46:28;;;;;;;;;7.33;7.33;;;;;24.25;56.42;98555.00;4978979;28;103072;-79
2021/06/19 02:49:04;;;;;;;;;9.00;7.00;;;;;24.21;56.05;98535.41;4983989;28;107720;-78
2021/06/19 02:51:39;;;;;;;;;7.67;7.67;;;;;24.19;56.28;98534.03;4960805;28;107146;-79
2021/06/19 02:54:14;;;;;;;;;8.00;7.00;;;;;24.22;56.15;98541.78;4980709;27;102524;-79
2021/06/19 02:56:45;;;;;;;;;6.00;6.00;;;;;24.27;56.26;98556.34;4990468;28;102740;-79
2021/06/19 02:59:22;;;;;;;;;6.67;6.67;;;;;24.26;56.25;98556.66;4973634;28;103573;-79
2021/06/19 03:01:56;;;;;;;;;9.33;8.00;;;;;24.19;56.07;98539.56;4967191;28;105437;-79
2021/06/19 03:04:30;;;;;;;;;7.00;7.00;;;;;24.20;56.11;98547.56;4957312;28;102193;-79
2021/06/19 03:07:04;;;;;;;;;8.00;7.00;;;;;24.18;55.89;98549.78;4982340;27;102489;-78
2021/06/19 03:09:37;;;;;;;;;6.33;6.33;;;;;24.17;55.77;98553.69;4976738;28;109251;-79
2021/06/19 03:12:05;;;;;;;;;8.33;7.33;;;;;24.20;55.89;98558.63;4972803;28;102230;-80
2021/06/19 03:14:32;;;;;;;;;7.00;6.00;;;;;24.12;56.05;98547.34;4961136;27;102711;-79
2021/06/19 03:16:59;;;;;;;;;7.00;6.33;;;;;24.10;55.95;98542.09;4979497;28;102682;-79
2021/06/19 03:19:28;;;;;;;;;6.00;6.00;;;;;24.18;55.79;98554.53;4991033;28;103064;-79
2021/06/19 03:22:00;;;;;;;;;8.00;7.67;;;;;24.17;55.70;98558.41;4979884;27;102572;-79
2021/06/19 03:24:27;;;;;;;;;7.67;7.67;;;;;24.16;55.86;98556.72;4989690;28;102106;-79
2021/06/19 03:26:55;;;;;;;;;8.00;8.00;;;;;24.16;55.61;98556.72;5009052;27;102246;-79
2021/06/19 03:29:22;;;;;;;;;9.33;7.00;;;;;24.11;55.86;98545.69;4983152;28;104438;-79
2021/06/19 03:31:49;;;;;;;;;8.33;8.33;;;;;24.12;55.76;98552.88;5007807;27;102387;-79
2021/06/19 03:34:16;;;;;;;;;7.00;6.00;;;;;24.04;55.52;98547.97;4998509;27;102100;-79
2021/06/19 03:36:44;;;;;;;;;7.00;7.00;;;;;24.09;55.57;98556.22;4997627;28;104314;-79
2021/06/19 03:39:15;;;;;;;;;9.00;9.00;;;;;24.04;55.45;98542.47;4993038;27;104513;-79
2021/06/19 03:41:43;;;;;;;;;7.00;7.00;;;;;24.10;55.48;98561.44;5004150;27;102556;-79
2021/06/19 03:44:11;;;;;;;;;7.00;7.00;;;;;24.07;54.88;98547.41;4977030;27;102497;-79
2021/06/19 03:46:39;;;;;;;;;9.00;8.00;;;;;24.10;55.18;98549.56;5005095;27;102192;-79
2021/06/19 03:49:06;;;;;;;;;8.00;7.00;;;;;24.02;55.57;98546.31;4976909;28;103336;-80
2021/06/19 03:51:33;;;;;;;;;7.00;7.00;;;;;24.03;55.14;98541.63;5000769;28;102433;-79
2021/06/19 03:54:01;;;;;;;;;8.00;8.00;;;;;24.07;55.49;98555.69;4992827;27;103945;-79
2021/06/19 03:56:28;;;;;;;;;8.00;8.00;;;;;24.04;55.39;98556.28;4989549;27;103695;-79
2021/06/19 03:58:55;;;;;;;;;9.33;8.00;;;;;24.04;54.81;98554.34;4985521;27;104518;-79
2021/06/19 04:01:22;;;;;;;;;9.33;9.33;;;;;23.94;55.28;98535.91;4969856;27;102655;-79
2021/06/19 04:03:49;;;;;;;;;6.33;6.33;;;;;24.02;55.04;98551.84;4986347;28;108863;-79
2021/06/19 04:06:17;;;;;;;;;8.00;8.00;;;;;23.96;55.22;98541.13;4984627;28;102494;-80
2021/06/19 04:08:44;;;;;;;;;7.33;6.00;;;;;24.03;55.45;98560.97;4992192;28;105768;-79
2021/06/19 04:11:14;;;;;;;;;7.67;7.67;;;;;23.94;54.48;98543.38;4975032;27;102516;-78
2021/06/19 04:13:42;;;;;;;;;7.00;7.00;;;;;24.00;54.93;98553.28;4982504;28;102496;-79
2021/06/19 04:16:09;;;;;;;;;10.00;9.33;;;;;24.02;54.48;98556.56;4991566;28;102377;-79
2021/06/19 04:18:38;;;;;;;;;7.33;7.33;;;;;23.98;54.98;98549.97;4990225;27;104119;-79
2021/06/19 04:21:06;;;;;;;;;6.33;6.33;;;;;23.99;54.59;98551.63;5003987;27;102642;-79
2021/06/19 04:23:34;;;;;;;;;6.00;6.00;;;;;24.02;54.88;98562.91;4982843;28;102172;-79
2021/06/19 04:26:01;;;;;;;;;8.67;8.67;;;;;23.98;54.59;98552.72;4987838;28;102568;-79
2021/06/19 04:28:29;;;;;;;;;9.33;9.00;;;;;24.01;54.23;98558.47;4995324;28;103117;-79
2021/06/19 04:30:59;;;;;;;;;8.00;8.00;;;;;24.01;54.50;98560.41;5008601;27;102672;-79
2021/06/19 04:33:33;;;;;;;;;7.67;7.67;;;;;24.00;54.52;98553.28;4998978;27;102369;-79
2021/06/19 04:36:02;;;;;;;;;7.67;7.67;;;;;24.01;54.77;98561.25;4993633;28;102221;-78
2021/06/19 04:38:29;;;;;;;;;8.33;8.33;;;;;24.01;54.31;98560.41;4981178;28;104301;-79
2021/06/19 04:41:01;;;;;;;;;8.00;7.33;;;;;24.00;54.18;98562.34;4995017;27;102485;-79
2021/06/19 04:43:52;;;;;;;;;9.00;9.00;;;;;23.95;54.93;98551.38;4975268;28;102331;-80
2021/06/19 04:46:19;;;;;;;;;7.00;7.00;;;;;23.99;54.35;98555.19;4921070;28;102387;-79
2021/06/19 04:48:47;;;;;;;;;7.33;7.33;;;;;23.95;54.48;98545.03;4994450;27;103184;-79
2021/06/19 04:51:14;;;;;;;;;10.00;9.33;;;;;24.00;54.48;98562.34;4993576;28;102236;-79
2021/06/19 04:53:41;;;;;;;;;7.33;7.33;;;;;24.01;54.25;98572.28;4976775;28;102518;-79
2021/06/19 04:56:08;;;;;;;;;9.00;9.00;;;;;23.94;54.33;98560.75;4998601;27;102191;-79
2021/06/19 04:58:35;;;;;;;;;11.33;10.00;;;;;24.01;54.39;98572.28;4996124;27;104082;-79
2021/06/19 05:01:03;;;;;;;;;6.67;6.67;;;;;23.90;54.69;98547.81;4992824;28;102367;-79
2021/06/19 05:03:31;;;;;;;;;10.00;8.00;;;;;24.01;54.31;98566.78;4976613;28;102150;-79
2021/06/19 05:05:58;;;;;;;;;9.00;7.00;;;;;24.01;54.20;98561.25;4995841;28;102664;-79
2021/06/19 05:08:26;;;;;;;;;7.67;7.67;;;;;24.04;54.19;98559.84;4990207;28;103068;-79
2021/06/19 05:10:53;;;;;;;;;8.00;7.00;;;;;24.04;54.45;98567.31;5009116;27;102224;-79
2021/06/19 05:13:20;;;;;;;;;12.00;9.00;;;;;24.00;54.29;98559.59;4975259;28;103081;-79
2021/06/19 05:15:47;;;;;;;;;9.00;8.67;;;;;23.97;54.42;98546.38;4995694;27;104465;-80
2021/06/19 05:18:15;;;;;;;;;8.67;8.67;;;;;23.96;54.73;98549.41;4996595;27;103155;-79
2021/06/19 05:20:42;;;;;;;;;9.00;9.00;;;;;24.04;54.78;98559.03;5011865;28;102444;-78
2021/06/19 05:23:10;;;;;;;;;9.00;8.33;;;;;24.03;54.45;98552.69;4970410;28;102663;-80
2021/06/19 05:25:38;;;;;;;;;8.00;8.00;;;;;24.01;54.47;98552.97;4992032;27;102853;-81
2021/06/19 05:28:05;;;;;;;;;11.67;9.33;;;;;24.03;54.52;98547.16;5006803;27;103958;-79
2021/06/19 05:30:33;;;;;;;;;8.67;7.67;;;;;24.07;54.30;98550.16;4990918;27;102224;-79
2021/06/19 05:33:00;;;;;;;;;5.67;5.67;;;;;24.07;54.17;98548.22;4968069;27;102167;-79
2021/06/19 05:35:27;;;;;;;;;7.67;7.67;;;;;24.08;54.43;98547.13;4997272;27;104356;-79
2021/06/19 05:37:54;;;;;;;;;7.67;7.67;;;;;24.10;54.57;98557.84;4989349;27;104340;-79
2021/06/19 05:40:22;;;;;;;;;8.00;8.00;;;;;24.11;54.63;98548.47;5004619;27;102374;-79
2021/06/19 05:42:49;;;;;;;;;7.67;7.67;;;;;24.07;54.67;98541.88;5012598;27;102065;-79
2021/06/19 05:45:17;;;;;;;;;8.33;8.00;;;;;24.05;54.75;98539.38;5000425;27;102251;-78
2021/06/19 05:47:44;;;;;;;;;8.00;8.00;;;;;24.11;54.66;98565.88;4988858;28;104170;-80
2021/06/19 05:50:11;;;;;;;;;9.00;8.00;;;;;24.10;54.91;98547.63;5003658;27;103900;-79
2021/06/19 05:52:41;;;;;;;;;8.00;7.33;;;;;24.11;54.74;98548.47;4952021;28;102140;-79
2021/06/19 05:55:14;;;;;;;;;8.00;8.00;;;;;24.08;54.66;98546.28;5001370;27;102313;-79
2021/06/19 05:57:41;;;;;;;;;9.33;7.33;;;;;24.14;54.92;98556.16;4992085;28;105337;-79
2021/06/19 06:00:08;;;;;;;;;8.67;8.00;;;;;24.12;54.73;98552.88;4983805;28;103225;-80
2021/06/19 06:02:36;;;;;;;;;10.00;9.00;;;;;24.08;54.82;98543.53;5001911;28;102588;-79
2021/06/19 06:05:04;;;;;;;;;7.67;7.00;;;;;24.14;55.02;98551.47;4970972;28;102529;-79
2021/06/19 06:07:32;;;;;;;;;8.33;8.33;;;;;24.12;55.02;98548.19;4978911;27;104075;-80
2021/06/19 06:09:59;;;;;;;;;5.67;5.00;;;;;24.14;54.77;98554.22;4986630;27;102164;-79
2021/06/19 06:12:26;;;;;;;;;8.00;7.00;;;;;24.10;55.01;98549.56;5000616;28;102660;-79
2021/06/19 06:14:54;;;;;;;;;8.00;7.00;;;;;24.12;55.03;98555.63;5002716;27;102205;-79
2021/06/19 06:17:21;;;;;;;;;7.00;7.00;;;;;24.13;55.20;98557.28;4976679;28;104055;-79
2021/06/19 06:19:49;;;;;;;;;7.00;6.00;;;;;24.15;55.26;98560.56;4995622;28;102630;-79
2021/06/19 06:22:16;;;;;;;;;8.00;8.00;;;;;24.15;55.28;98558.63;4983429;28;102767;-79
2021/06/19 06:24:43;;;;;;;;;7.00;6.33;;;;;24.16;55.28;98559.50;4987256;27;102319;-79
2021/06/19 06:27:11;;;;;;;;;10.00;8.33;;;;;24.16;55.01;98556.72;4992126;27;103596;-79
2021/06/19 06:29:38;;;;;;;;;9.33;8.33;;;;;24.17;55.10;98561.16;4982273;28;102569;-79
2021/06/19 06:32:06;;;;;;;;;11.00;9.00;;;;;24.15;55.05;98566.09;4982620;28;102123;-79
2021/06/19 06:34:33;;;;;;;;;8.00;7.33;;;;;24.12;54.91;98563.94;4978105;28;102669;-79
2021/06/19 06:37:01;;;;;;;;;7.00;6.33;;;;;24.16;55.19;98567.78;4987590;28;104004;-80
2021/06/19 06:39:29;;;;;;;;;8.67;8.67;;;;;24.12;55.22;98553.69;4969548;28;104488;-80
2021/06/19 06:41:58;;;;;;;;;8.00;8.00;;;;;24.17;54.92;98558.41;4983367;28;102222;-79
2021/06/19 06:44:25;;;;;;;;;7.00;6.33;;;;;24.19;55.29;98556.16;4978627;27;102624;-79
2021/06/19 06:46:52;;;;;;;;;8.00;7.33;;;;;24.11;55.12;98545.69;4984227;28;103251;-79
2021/06/19 06:49:20;;;;;;;;;8.00;7.00;;;;;24.09;54.96;98545.97;4962873;28;102619;-79
2021/06/19 06:51:48;;;;;;;;;8.00;6.33;;;;;24.21;55.24;98556.69;4986441;27;102184;-79
2021/06/19 06:54:15;;;;;;;;;9.33;9.00;;;;;24.20;55.44;98555.88;4999964;27;102594;-79
2021/06/19 06:56:42;;;;;;;;;8.00;5.67;;;;;24.22;55.43;98563.88;4996660;28;102163;-79
2021/06/19 06:59:10;;;;;;;;;6.00;6.00;;;;;24.20;55.54;98555.03;4995242;27;102122;-79
2021/06/19 07:01:38;;;;;;;;;8.00;8.00;;;;;24.16;55.19;98541.00;4989648;28;102601;-80
2021/06/19 07:04:06;;;;;;;;;7.00;7.00;;;;;24.20;55.07;98549.50;4976736;28;102308;-79
2021/06/19 07:06:33;;;;;;;;;7.33;7.33;;;;;24.17;55.50;98552.88;4991230;28;104254;-79
2021/06/19 07:09:00;;;;;;;;;9.00;6.67;;;;;24.22;55.47;98559.19;5006883;27;102333;-79
2021/06/19 07:11:27;;;;;;;;;8.00;7.00;;;;;24.25;55.60;98564.13;4995486;28;102139;-79
2021/06/19 07:13:54;;;;;;;;;6.67;6.67;;;;;24.25;55.34;98564.13;4993317;28;102285;-80
2021/06/19 07:16:22;;;;;;;;;7.00;6.67;;;;;24.19;55.30;98550.63;4992896;27;104070;-79
2021/06/19 07:18:49;;;;;;;;;7.33;7.33;;;;;24.28;55.60;98573.75;4985391;28;102091;-79
2021/06/19 07:21:16;;;;;;;;;8.67;7.00;;;;;24.24;55.72;98558.88;5011080;27;102509;-79
2021/06/19 07:23:44;;;;;;;;;7.33;7.33;;;;;24.22;55.85;98556.41;4983115;27;102207;-79
2021/06/19 07:26:11;;;;;;;;;7.00;7.00;;;;;24.26;55.60;98565.78;5003488;27;103722;-79
2021/06/19 07:28:38;;;;;;;;;8.67;8.67;;;;;24.26;55.61;98556.66;4996091;28;102081;-79
2021/06/19 07:31:05;;;;;;;;;5.00;5.00;;;;;24.29;55.72;98556.06;5010587;27;102701;-80
2021/06/19 07:33:33;;;;;;;;;6.33;6.33;;;;;24.25;55.66;98553.06;4978946;28;102461;-79
2021/06/19 07:36:00;;;;;;;;;8.33;6.00;;;;;24.29;55.91;98558.81;5011507;27;104028;-81
2021/06/19 07:38:30;;;;;;;;;6.67;6.67;;;;;24.28;55.88;98546.94;4991015;28;102710;-78
2021/06/19 07:40:57;;;;;;;;;7.00;6.00;;;;;24.22;55.63;98533.47;4981464;28;102378;-79
2021/06/19 07:43:25;;;;;;;;;6.00;6.00;;;;;24.32;55.77;98547.19;4988830;27;102595;-80
2021/06/19 07:45:53;;;;;;;;;5.00;5.00;;;;;24.22;55.93;98527.94;4999209;27;104179;-80
2021/06/19 07:48:21;;;;;;;;;7.00;7.00;;;;;24.30;55.88;98541.97;4975707;28;108608;-79
2021/06/19 07:50:48;;;;;;;;;7.00;7.00;;;;;24.32;55.92;98542.47;4997035;27;102751;-79
2021/06/19 07:53:15;;;;;;;;;8.33;7.00;;;;;24.30;55.79;98535.59;4995316;27;102365;-79
2021/06/19 07:55:42;;;;;;;;;6.33;6.00;;;;;24.34;55.68;98536.66;4982242;27;103769;-79
2021/06/19 07:58:10;;;;;;;;;7.00;6.00;;;;;24.26;55.70;98523.50;5001805;28;102437;-79
2021/06/19 08:00:37;;;;;;;;;8.33;8.33;;;;;24.29;55.95;98526.50;4968837;28;102481;-78
2021/06/19 08:03:05;;;;;;;;;7.00;7.00;;;;;24.32;55.67;98533.34;4975532;28;102690;-79
2021/06/19 08:05:32;;;;;;;;;5.00;5.00;;;;;24.35;55.85;98527.25;4991833;27;104585;-78
2021/06/19 08:08:00;;;;;;;;;7.00;7.00;;;;;24.30;56.03;98519.84;4969926;27;102482;-79
2021/06/19 08:10:30;;;;;;;;;6.33;6.33;;;;;24.40;55.80;98538.28;4973408;28;102470;-79
2021/06/19 08:12:58;;;;;;;;;6.33;6.00;;;;;24.39;55.83;98526.38;4998374;28;102247;-79
2021/06/19 08:15:26;;;;;;;;;6.00;6.00;;;;;24.35;55.92;98517.03;4960309;28;103099;-79
2021/06/19 08:17:54;;;;;;;;;7.00;7.00;;;;;24.41;55.98;98515.03;4997873;28;102480;-80
2021/06/19 08:20:22;;;;;;;;;7.00;6.67;;;;;24.37;56.01;98508.44;4978216;27;103347;-79
2021/06/19 08:22:49;;;;;;;;;6.67;6.67;;;;;24.41;55.92;98518.63;4997845;28;102846;-80
2021/06/19 08:25:16;;;;;;;;;7.67;6.67;;;;;24.36;55.93;98504.03;4978444;28;104574;-79
2021/06/19 08:27:43;;;;;;;;;6.33;6.33;;;;;24.42;56.03;98519.44;4989866;28;102150;-80
2021/06/19 08:30:11;;;;;;;;;7.33;7.00;;;;;24.38;56.15;98507.31;4969740;28;102717;-79
2021/06/19 08:32:39;;;;;;;;;8.00;8.00;;;;;24.43;55.93;98515.56;4988066;28;101348;-79
2021/06/19 08:35:07;;;;;;;;;6.67;6.33;;;;;24.37;55.60;98500.13;4991867;27;104096;-80
2021/06/19 08:37:35;;;;;;;;;7.33;7.33;;;;;24.45;55.87;98508.63;4968189;28;103873;-79
2021/06/19 08:40:03;;;;;;;;;6.67;6.67;;;;;24.45;55.81;98505.84;4978566;27;102191;-79
2021/06/19 08:42:30;;;;;;;;;6.00;6.00;;;;;24.48;55.78;98507.22;4986523;28;102489;-79
2021/06/19 08:44:58;;;;;;;;;7.00;7.00;;;;;24.45;56.06;98513.34;4987479;27;104059;-79
2021/06/19 08:47:26;;;;;;;;;6.33;6.33;;;;;24.49;56.23;98517.16;5007284;28;102259;-79
2021/06/19 08:49:54;;;;;;;;;7.00;6.33;;;;;24.49;56.15;98510.81;4984438;28;102136;-79
2021/06/19 08:52:22;;;;;;;;;6.00;6.00;;;;;24.49;56.33;98525.47;4992155;27;102680;-79
2021/06/19 08:54:49;;;;;;;;;8.00;7.00;;;;;24.48;56.03;98512.75;5008800;28;104098;-79
2021/06/19 08:57:16;;;;;;;;;6.33;6.33;;;;;24.41;55.85;98499.25;5000549;27;102680;-79
2021/06/19 08:59:48;;;;;;;;;9.00;7.00;;;;;24.51;56.28;98514.91;4987929;27;102107;-79
2021/06/19 09:02:18;;;;;;;;;7.67;7.00;;;;;24.50;55.94;98513.25;4996097;28;102304;-79
2021/06/19 09:04:52;;;;;;;;;7.33;6.67;;;;;24.49;55.94;98511.63;4978662;28;103118;-80
2021/06/19 09:07:44;;;;;;;;;7.00;7.00;;;;;24.50;56.10;98518.78;4991597;28;102500;-79
2021/06/19 09:10:26;;;;;;;;;6.00;5.33;;;;;24.45;55.77;98516.09;4996895;27;102290;-79
2021/06/19 09:12:55;;;;;;;;;5.33;5.33;;;;;24.54;55.85;98522.63;4936627;27;102272;-79
2021/06/19 09:15:23;;;;;;;;;5.00;5.00;;;;;24.57;56.11;98524.81;4995476;27;103146;-79
2021/06/19 09:18:10;;;;;;;;;5.67;4.67;;;;;24.50;56.11;98513.25;4995518;27;101887;-79
2021/06/19 09:21:02;;;;;;;;;6.00;6.00;;;;;24.50;55.92;98513.25;4984818;27;102450;-80
2021/06/19 09:23:36;;;;;;;;;6.00;6.00;;;;;24.59;56.08;98522.56;4928954;27;103107;-79
2021/06/19 09:26:14;;;;;;;;;5.33;5.33;;;;;24.59;56.11;98522.56;4967078;28;104078;-79
2021/06/19 09:28:58;;;;;;;;;6.67;6.67;;;;;24.55;55.72;98504.91;5009060;27;102278;-79
2021/06/19 09:31:48;;;;;;;;;6.67;6.67;;;;;24.55;55.92;98499.38;4929666;27;102604;-79
2021/06/19 09:34:18;;;;;;;;;6.00;6.00;;;;;24.53;55.79;98498.88;4987337;27;102811;-79
2021/06/19 09:36:51;;;;;;;;;7.67;7.33;;;;;24.62;55.94;98513.69;4990859;28;104297;-80
2021/06/19 09:39:24;;;;;;;;;7.00;7.00;;;;;24.64;55.93;98507.84;4984870;28;102071;-79
2021/06/19 09:41:57;;;;;;;;;7.00;6.00;;;;;24.60;56.04;98496.56;4981849;27;102413;-80
2021/06/19 09:44:42;;;;;;;;;5.67;5.67;;;;;24.58;55.74;98493.28;4989386;28;103368;-79
2021/06/19 09:47:11;;;;;;;;;7.00;7.00;;;;;24.66;55.81;98506.47;4980505;27;103908;-79
2021/06/19 09:49:41;;;;;;;;;6.33;6.33;;;;;24.65;56.04;98501.22;4984148;28;102524;-79
2021/06/19 09:52:09;;;;;;;;;7.00;6.67;;;;;24.60;55.97;98488.28;4984536;28;102049;-79
2021/06/19 09:54:45;;;;;;;;;6.00;6.00;;;;;24.60;56.08;98485.50;4985945;28;102534;-79
2021/06/19 09:57:17;;;;;;;;;5.00;4.67;;;;;24.66;56.14;98495.41;4966740;28;106151;-80
2021/06/19 09:59:44;;;;;;;;;7.33;5.67;;;;;24.68;55.72;98504.19;4982158;27;104850;-79
2021/06/19 10:02:16;;;;;;;;;5.67;5.00;;;;;24.62;55.89;98488.81;5003981;27;102089;-80
2021/06/19 10:04:43;;;;;;;;;6.33;5.67;;;;;24.69;55.94;98500.31;4975006;28;102175;-79
2021/06/19 10:07:10;;;;;;;;;6.33;6.33;;;;;24.70;56.03;98496.44;4973302;28;107508;-79
2021/06/19 10:09:38;;;;;;;;;5.33;5.33;;;;;24.63;55.89;98479.38;5009490;27;102430;-79
2021/06/19 10:12:07;;;;;;;;;5.33;5.33;;;;;24.72;55.70;98498.94;4976549;28;102490;-79
2021/06/19 10:14:35;;;;;;;;;6.00;5.00;;;;;24.72;55.69;98493.41;4993569;27;104530;-79
2021/06/19 10:17:02;;;;;;;;;5.67;5.67;;;;;24.66;55.87;98483.50;4971325;27;104079;-79
2021/06/19 10:19:30;;;;;;;;;5.33;4.33;;;;;24.73;55.87;98487.56;4970560;28;102297;-80
2021/06/19 10:21:57;;;;;;;;;6.33;6.33;;;;;24.68;55.76;98478.50;4992286;28;102024;-79
2021/06/19 10:24:24;;;;;;;;;6.00;5.67;;;;;24.75;55.90;98488.09;4969649;28;102602;-80
2021/06/19 10:26:52;;;;;;;;;5.67;5.67;;;;;24.70;55.54;98479.03;5003852;27;103160;-79
2021/06/19 10:29:24;;;;;;;;;6.67;6.67;;;;;24.77;55.79;98485.00;4977680;28;102354;-79
2021/06/19 10:31:53;;;;;;;;;5.00;5.00;;;;;24.68;55.80;98471.03;5001981;27;102506;-79
2021/06/19 10:34:30;;;;;;;;;6.00;6.00;;;;;24.70;55.62;98462.44;4992890;28;102408;-79
2021/06/19 10:37:00;;;;;;;;;6.00;6.00;;;;;24.72;55.74;98472.06;4982585;27;104354;-80
2021/06/19 10:39:35;;;;;;;;;6.00;6.00;;;;;24.78;55.89;98475.59;4991311;28;102290;-79
2021/06/19 10:42:04;;;;;;;;;4.67;4.33;;;;;24.81;55.73;98486.88;4979385;27;102284;-79
2021/06/19 10:44:50;;;;;;;;;5.00;5.00;;;;;24.74;55.88;98467.09;5002426;27;102283;-79
2021/06/19 10:47:18;;;;;;;;;4.00;4.00;;;;;24.80;55.68;98471.44;4975829;27;108087;-79
2021/06/19 10:49:46;;;;;;;;;4.00;3.00;;;;;24.82;55.43;98466.41;4980224;28;103573;-80
2021/06/19 10:52:28;;;;;;;;;5.67;5.33;;;;;24.81;55.54;98463.97;4991602;28;102147;-79
2021/06/19 10:55:11;;;;;;;;;7.67;5.67;;;;;24.84;55.76;98460.59;4940563;27;102279;-80
2021/06/19 10:57:48;;;;;;;;;7.33;7.33;;;;;24.78;55.72;98457.06;4988358;28;103075;-79
2021/06/19 11:00:28;;;;;;;;;4.33;4.33;;;;;24.85;55.77;98453.94;4994371;27;102462;-79
2021/06/19 11:03:00;;;;;;;;;5.33;5.33;;;;;24.81;55.47;98448.16;4944815;28;102106;-79
2021/06/19 11:05:40;;;;;;;;;5.67;5.67;;;;;24.87;55.55;98463.63;4994495;27;103068;-79
2021/06/19 11:08:17;;;;;;;;;6.00;5.00;;;;;24.86;55.61;98461.97;4996851;27;104317;-79
2021/06/19 11:10:45;;;;;;;;;5.67;5.00;;;;;24.80;55.63;98446.53;4973064;27;101996;-79
2021/06/19 11:13:27;;;;;;;;;5.00;4.00;;;;;24.82;55.65;98452.59;5003675;27;102443;-79
2021/06/19 11:16:00;;;;;;;;;7.33;6.33;;;;;24.92;55.73;98459.13;4929438;28;102109;-79
2021/06/19 11:18:49;;;;;;;;;5.00;5.00;;;;;24.91;55.60;98457.47;4986632;28;104425;-79
2021/06/19 11:21:18;;;;;;;;;5.00;5.00;;;;;24.87;55.50;98437.91;4944570;28;103344;-79
2021/06/19 11:24:03;;;;;;;;;6.33;5.67;;;;;24.94;55.59;98445.84;4954722;28;102173;-80
2021/06/19 11:26:57;;;;;;;;;5.00;4.67;;;;;24.95;55.55;98434.47;4914126;28;102317;-79
2021/06/19 11:29:37;;;;;;;;;5.00;4.00;;;;;24.93;55.43;98435.88;4898334;28;109391;-79
2021/06/19 11:32:30;;;;;;;;;5.00;4.33;;;;;24.91;55.43;98433.41;4906993;28;103835;-80
2021/06/19 11:34:59;;;;;;;;;5.00;5.00;;;;;24.91;55.34;98414.03;4958768;28;102953;-79
2021/06/19 11:37:50;;;;;;;;;5.33;5.33;;;;;24.97;55.52;98429.47;4945267;28;102228;-78
2021/06/19 11:40:30;;;;;;;;;5.67;5.33;;;;;24.87;55.37;98419.34;4965005;28;108782;-80
2021/06/19 11:43:31;;;;;;;;;4.33;4.33;;;;;24.93;55.51;98422.06;4922300;28;102170;-79